FDX251 KSEA-PANC
Flight info
| Callsign | FDX251 |
|---|---|
| Flight time | N/A |
| Altitude | 36000 |
| Route | BANGR9 ARRIE FOCHE PRYCE BKA LAIRE JOH WITTI5 |
| Aircraft | B77L/H-SDE1E2E3FGHIJ2J3J4J5M1RWXY/LB1D1 |
Departure
| Time | 2026-05-04 05:36 |
|---|---|
| Airport | Seattle–Tacoma International Airport (KSEA) |
Arrival
| Time | N/A |
|---|---|
| Airport | Ted Stevens Anchorage International Airport (PANC) |
| Time | Latitude | Longitude | Altitude | Speed | Heading |
|---|---|---|---|---|---|
| 2026-05-04 05:01 | 47.46099 | -122.30081 | 388 ft | 0 kts | 180° |
| 2026-05-04 05:16 | 47.46111 | -122.30081 | 388 ft | 3 kts | 180° |
| 2026-05-04 05:16 | 47.46131 | -122.30081 | 388 ft | 3 kts | 183° |
| 2026-05-04 05:17 | 47.46151 | -122.30078 | 388 ft | 3 kts | 194° |
| 2026-05-04 05:17 | 47.46167 | -122.30070 | 388 ft | 3 kts | 220° |
| 2026-05-04 05:17 | 47.46174 | -122.30061 | 388 ft | 2 kts | 262° |
| 2026-05-04 05:17 | 47.46175 | -122.30057 | 388 ft | 1 kts | 269° |
| 2026-05-04 05:18 | 47.46175 | -122.30081 | 388 ft | 3 kts | 272° |
| 2026-05-04 05:18 | 47.46177 | -122.30111 | 388 ft | 3 kts | 275° |
| 2026-05-04 05:18 | 47.46179 | -122.30140 | 388 ft | 3 kts | 275° |
| 2026-05-04 05:18 | 47.46181 | -122.30170 | 388 ft | 3 kts | 275° |
| 2026-05-04 05:19 | 47.46182 | -122.30200 | 388 ft | 3 kts | 274° |
| 2026-05-04 05:19 | 47.46183 | -122.30230 | 388 ft | 3 kts | 273° |
| 2026-05-04 05:19 | 47.46184 | -122.30260 | 388 ft | 3 kts | 271° |
| 2026-05-04 05:19 | 47.46184 | -122.30286 | 388 ft | 1 kts | 270° |
| 2026-05-04 05:20 | 47.46184 | -122.30289 | 388 ft | 0 kts | 270° |
| 2026-05-04 05:25 | 47.46184 | -122.30290 | 388 ft | 2 kts | 270° |
| 2026-05-04 05:25 | 47.46184 | -122.30379 | 388 ft | 16 kts | 270° |
| 2026-05-04 05:26 | 47.46182 | -122.30560 | 388 ft | 11 kts | 261° |
| 2026-05-04 05:26 | 47.46118 | -122.30614 | 388 ft | 12 kts | 185° |
| 2026-05-04 05:26 | 47.46112 | -122.30615 | 388 ft | 0 kts | 185° |
| 2026-05-04 05:28 | 47.45698 | -122.30621 | 388 ft | 15 kts | 180° |
| 2026-05-04 05:29 | 47.45594 | -122.30622 | 388 ft | 15 kts | 180° |
| 2026-05-04 05:29 | 47.45490 | -122.30622 | 388 ft | 15 kts | 180° |
| 2026-05-04 05:29 | 47.45388 | -122.30623 | 388 ft | 15 kts | 180° |
| 2026-05-04 05:29 | 47.45284 | -122.30624 | 388 ft | 15 kts | 181° |
| 2026-05-04 05:31 | 47.44349 | -122.30635 | 388 ft | 22 kts | 179° |
| 2026-05-04 05:31 | 47.44199 | -122.30635 | 388 ft | 22 kts | 180° |
| 2026-05-04 05:32 | 47.44048 | -122.30637 | 388 ft | 22 kts | 180° |
| 2026-05-04 05:32 | 47.43897 | -122.30637 | 388 ft | 22 kts | 180° |
| 2026-05-04 05:32 | 47.43749 | -122.30638 | 388 ft | 22 kts | 180° |
| 2026-05-04 05:33 | 47.43459 | -122.30561 | 388 ft | 22 kts | 180° |
| 2026-05-04 05:33 | 47.43323 | -122.30562 | 388 ft | 19 kts | 180° |
| 2026-05-04 05:33 | 47.43201 | -122.30616 | 388 ft | 15 kts | 224° |
| 2026-05-04 05:33 | 47.43189 | -122.30640 | 388 ft | 0 kts | 239° |
| 2026-05-04 05:34 | 47.43187 | -122.30647 | 388 ft | 4 kts | 242° |
| 2026-05-04 05:34 | 47.43189 | -122.30772 | 388 ft | 15 kts | 302° |
| 2026-05-04 05:34 | 47.43252 | -122.30803 | 388 ft | 0 kts | 2° |
| 2026-05-04 05:35 | 47.43373 | -122.30802 | 388 ft | 52 kts | 360° |
| 2026-05-04 05:35 | 47.43985 | -122.30797 | 388 ft | 122 kts | 0° |
| 2026-05-04 05:35 | 47.45026 | -122.30778 | 407 ft | 174 kts | 1° |
| 2026-05-04 05:35 | 47.46287 | -122.30780 | 836 ft | 185 kts | 1° |
| 2026-05-04 05:36 | 47.47592 | -122.30780 | 1405 ft | 189 kts | 0° |
| 2026-05-04 05:36 | 47.48912 | -122.30786 | 2141 ft | 189 kts | 0° |
| 2026-05-04 05:36 | 47.50239 | -122.30774 | 2679 ft | 198 kts | 0° |
| 2026-05-04 05:36 | 47.51687 | -122.30806 | 3071 ft | 217 kts | 359° |
| 2026-05-04 05:37 | 47.53275 | -122.30873 | 3482 ft | 237 kts | 358° |
| 2026-05-04 05:37 | 47.54957 | -122.30991 | 3996 ft | 251 kts | 355° |
| 2026-05-04 05:37 | 47.56709 | -122.31642 | 4607 ft | 263 kts | 335° |
| 2026-05-04 05:38 | 47.59718 | -122.34825 | 6172 ft | 270 kts | 320° |
| 2026-05-04 05:38 | 47.61074 | -122.36760 | 6779 ft | 281 kts | 306° |
| 2026-05-04 05:38 | 47.62013 | -122.39319 | 7493 ft | 281 kts | 295° |
| 2026-05-04 05:38 | 47.62796 | -122.41980 | 8354 ft | 280 kts | 296° |
| 2026-05-04 05:39 | 47.63807 | -122.44504 | 8861 ft | 294 kts | 308° |
| 2026-05-04 05:39 | 47.67382 | -122.48125 | 9199 ft | 339 kts | 351° |
| 2026-05-04 05:39 | 47.69765 | -122.48213 | 9432 ft | 359 kts | 8° |
| 2026-05-04 05:40 | 47.74606 | -122.46953 | 9912 ft | 337 kts | 3° |
| 2026-05-04 05:40 | 47.76819 | -122.46949 | 10559 ft | 296 kts | 359° |
| 2026-05-04 05:40 | 47.78765 | -122.47017 | 10948 ft | 271 kts | 359° |
| 2026-05-04 05:41 | 47.80576 | -122.47393 | 10911 ft | 259 kts | 337° |
| 2026-05-04 05:41 | 47.82032 | -122.48917 | 10663 ft | 268 kts | 308° |
| 2026-05-04 05:41 | 47.82777 | -122.51478 | 10744 ft | 272 kts | 278° |
| 2026-05-04 05:41 | 47.82984 | -122.54332 | 11127 ft | 280 kts | 275° |
| 2026-05-04 05:42 | 47.83130 | -122.57285 | 11810 ft | 291 kts | 275° |
| 2026-05-04 05:42 | 47.83262 | -122.60371 | 12175 ft | 314 kts | 274° |
| 2026-05-04 05:42 | 47.83408 | -122.63760 | 12491 ft | 338 kts | 275° |
| 2026-05-04 05:42 | 47.83585 | -122.67381 | 12842 ft | 360 kts | 275° |
| 2026-05-04 05:43 | 47.83790 | -122.71158 | 13405 ft | 376 kts | 275° |
| 2026-05-04 05:43 | 47.84014 | -122.75105 | 14112 ft | 384 kts | 276° |
| 2026-05-04 05:43 | 47.84241 | -122.79113 | 14768 ft | 395 kts | 275° |
| 2026-05-04 05:45 | 47.85942 | -123.09065 | 19906 ft | 433 kts | 277° |
| 2026-05-04 05:45 | 47.86191 | -123.13533 | 20498 ft | 440 kts | 277° |
| 2026-05-04 05:47 | 47.88757 | -123.46392 | 24419 ft | 466 kts | 301° |
| 2026-05-04 05:47 | 47.90598 | -123.50300 | 25058 ft | 458 kts | 316° |
| 2026-05-04 05:47 | 47.92972 | -123.53335 | 25653 ft | 451 kts | 328° |
| 2026-05-04 05:48 | 47.95558 | -123.56069 | 26087 ft | 457 kts | 328° |
| 2026-05-04 05:48 | 47.98184 | -123.58830 | 26516 ft | 462 kts | 328° |
| 2026-05-04 05:48 | 48.00800 | -123.61597 | 27106 ft | 464 kts | 328° |
| 2026-05-04 05:48 | 48.03439 | -123.64417 | 27703 ft | 466 kts | 328° |
| 2026-05-04 05:49 | 48.06051 | -123.67234 | 28196 ft | 470 kts | 327° |
| 2026-05-04 05:49 | 48.08721 | -123.70135 | 28685 ft | 473 kts | 327° |
| 2026-05-04 05:49 | 48.11364 | -123.73022 | 29157 ft | 475 kts | 327° |
| 2026-05-04 05:49 | 48.14065 | -123.75983 | 29626 ft | 478 kts | 327° |
| 2026-05-04 05:51 | 48.32464 | -123.96264 | 33499 ft | 459 kts | 328° |
| 2026-05-04 05:51 | 48.35016 | -123.99089 | 33996 ft | 457 kts | 328° |
| 2026-05-04 05:52 | 48.37584 | -124.01934 | 34402 ft | 455 kts | 328° |
| 2026-05-04 05:52 | 48.40106 | -124.04732 | 34773 ft | 454 kts | 329° |
| 2026-05-04 05:52 | 48.42665 | -124.07575 | 35150 ft | 453 kts | 329° |
| 2026-05-04 05:52 | 48.45170 | -124.10362 | 35521 ft | 451 kts | 329° |
| 2026-05-04 05:53 | 48.47690 | -124.13169 | 35878 ft | 450 kts | 329° |